Grandview, Tennessee
Current Conditions -  °F | °C
As of 6:53 PM on Tuesday 25 Nov 2014 (Local Time) from KCSV Reporting Station
Clear Clear  
Wind Chill:   Ceiling: Unl
Heat Index:   Visibility: 10mi
Dew Point: -3°   Wind: 7mph
Humidity: 46%   Direction: 320°NW
Pressure: 30.07"   Gusts: NA
Location:  35.74°N, 84.84°W
Report Text: KCSV 252353Z AUTO 32006KT 10SM CLR 08/M03 A3007 RMK AO2 SLP188 T00831028 10122 20083 53002
Loading
Personal Weather Stations






























Interactive Weather Map New forecast layout! Learn more

10-Day Weather Forecast

Advertisements
Track Severe Weather on mobile